sensor_id;sensor_type;location;lat;lon;timestamp;P1;durP1;ratioP1;P2;durP2;ratioP2
11498;SDS011;5806;48.748;9.278;2024-02-26T00:00:47;1.60;;;0.90;;
11498;SDS011;5806;48.748;9.278;2024-02-26T00:03:14;1.53;;;1.00;;
11498;SDS011;5806;48.748;9.278;2024-02-26T00:05:42;1.33;;;0.93;;
11498;SDS011;5806;48.748;9.278;2024-02-26T00:08:09;1.37;;;1.00;;
11498;SDS011;5806;48.748;9.278;2024-02-26T00:10:37;1.57;;;0.80;;
11498;SDS011;5806;48.748;9.278;2024-02-26T00:13:04;1.07;;;0.80;;
11498;SDS011;5806;48.748;9.278;2024-02-26T00:15:31;1.10;;;0.70;;
11498;SDS011;5806;48.748;9.278;2024-02-26T00:18:01;1.13;;;0.87;;
11498;SDS011;5806;48.748;9.278;2024-02-26T00:20:28;1.20;;;0.60;;
11498;SDS011;5806;48.748;9.278;2024-02-26T00:22:56;1.07;;;0.80;;
11498;SDS011;5806;48.748;9.278;2024-02-26T00:25:23;1.23;;;1.00;;
11498;SDS011;5806;48.748;9.278;2024-02-26T00:27:50;1.30;;;0.80;;
11498;SDS011;5806;48.748;9.278;2024-02-26T00:30:18;1.77;;;0.83;;
11498;SDS011;5806;48.748;9.278;2024-02-26T00:32:45;0.77;;;0.60;;
11498;SDS011;5806;48.748;9.278;2024-02-26T00:35:13;0.80;;;0.60;;
11498;SDS011;5806;48.748;9.278;2024-02-26T00:37:41;1.43;;;0.80;;
11498;SDS011;5806;48.748;9.278;2024-02-26T00:40:09;0.90;;;0.67;;
11498;SDS011;5806;48.748;9.278;2024-02-26T00:42:37;1.47;;;0.90;;
11498;SDS011;5806;48.748;9.278;2024-02-26T00:45:04;1.20;;;0.87;;
11498;SDS011;5806;48.748;9.278;2024-02-26T00:47:32;1.13;;;0.70;;
11498;SDS011;5806;48.748;9.278;2024-02-26T00:50:00;1.93;;;0.70;;
11498;SDS011;5806;48.748;9.278;2024-02-26T00:52:27;1.30;;;0.80;;
11498;SDS011;5806;48.748;9.278;2024-02-26T00:54:55;1.63;;;0.93;;
11498;SDS011;5806;48.748;9.278;2024-02-26T00:57:22;1.07;;;0.80;;
11498;SDS011;5806;48.748;9.278;2024-02-26T00:59:50;0.90;;;0.70;;
11498;SDS011;5806;48.748;9.278;2024-02-26T01:02:17;0.80;;;0.60;;
11498;SDS011;5806;48.748;9.278;2024-02-26T01:04:45;1.57;;;0.70;;
11498;SDS011;5806;48.748;9.278;2024-02-26T01:07:12;1.80;;;0.53;;
11498;SDS011;5806;48.748;9.278;2024-02-26T01:09:39;1.07;;;0.67;;
11498;SDS011;5806;48.748;9.278;2024-02-26T01:12:07;0.83;;;0.60;;
11498;SDS011;5806;48.748;9.278;2024-02-26T01:14:34;1.00;;;0.53;;
11498;SDS011;5806;48.748;9.278;2024-02-26T01:17:02;1.43;;;0.67;;
11498;SDS011;5806;48.748;9.278;2024-02-26T01:19:29;1.57;;;0.60;;
11498;SDS011;5806;48.748;9.278;2024-02-26T01:21:57;0.50;;;0.50;;
11498;SDS011;5806;48.748;9.278;2024-02-26T01:24:24;1.90;;;0.70;;
11498;SDS011;5806;48.748;9.278;2024-02-26T01:26:51;0.53;;;0.50;;
11498;SDS011;5806;48.748;9.278;2024-02-26T01:29:19;0.50;;;0.50;;
11498;SDS011;5806;48.748;9.278;2024-02-26T01:31:46;0.80;;;0.60;;
11498;SDS011;5806;48.748;9.278;2024-02-26T01:34:14;0.67;;;0.67;;
11498;SDS011;5806;48.748;9.278;2024-02-26T01:36:43;1.40;;;0.80;;
11498;SDS011;5806;48.748;9.278;2024-02-26T01:39:10;0.83;;;0.70;;
11498;SDS011;5806;48.748;9.278;2024-02-26T01:41:38;0.97;;;0.67;;
11498;SDS011;5806;48.748;9.278;2024-02-26T01:44:06;0.87;;;0.77;;
11498;SDS011;5806;48.748;9.278;2024-02-26T01:46:34;1.80;;;0.73;;
11498;SDS011;5806;48.748;9.278;2024-02-26T01:49:02;1.13;;;0.60;;
11498;SDS011;5806;48.748;9.278;2024-02-26T01:51:30;2.10;;;0.70;;
11498;SDS011;5806;48.748;9.278;2024-02-26T01:54:00;1.37;;;0.87;;
11498;SDS011;5806;48.748;9.278;2024-02-26T01:56:29;1.67;;;0.73;;
11498;SDS011;5806;48.748;9.278;2024-02-26T01:58:59;2.70;;;0.67;;
11498;SDS011;5806;48.748;9.278;2024-02-26T02:01:27;0.67;;;0.53;;
11498;SDS011;5806;48.748;9.278;2024-02-26T02:03:58;1.47;;;0.67;;
11498;SDS011;5806;48.748;9.278;2024-02-26T02:06:26;0.50;;;0.50;;
11498;SDS011;5806;48.748;9.278;2024-02-26T02:08:54;1.13;;;0.60;;
11498;SDS011;5806;48.748;9.278;2024-02-26T02:11:23;1.23;;;0.70;;
11498;SDS011;5806;48.748;9.278;2024-02-26T02:13:50;3.20;;;0.60;;
11498;SDS011;5806;48.748;9.278;2024-02-26T02:16:17;0.83;;;0.50;;
11498;SDS011;5806;48.748;9.278;2024-02-26T02:18:45;1.00;;;0.60;;
11498;SDS011;5806;48.748;9.278;2024-02-26T02:21:12;0.90;;;0.53;;
11498;SDS011;5806;48.748;9.278;2024-02-26T02:23:40;0.77;;;0.70;;
11498;SDS011;5806;48.748;9.278;2024-02-26T02:26:09;0.60;;;0.57;;
11498;SDS011;5806;48.748;9.278;2024-02-26T02:28:37;1.10;;;0.60;;
11498;SDS011;5806;48.748;9.278;2024-02-26T02:31:06;1.30;;;0.67;;
11498;SDS011;5806;48.748;9.278;2024-02-26T02:33:34;0.80;;;0.60;;
11498;SDS011;5806;48.748;9.278;2024-02-26T02:36:02;1.13;;;0.40;;
11498;SDS011;5806;48.748;9.278;2024-02-26T02:38:29;1.63;;;0.60;;
11498;SDS011;5806;48.748;9.278;2024-02-26T02:40:58;0.63;;;0.60;;
11498;SDS011;5806;48.748;9.278;2024-02-26T02:43:26;1.00;;;0.70;;
11498;SDS011;5806;48.748;9.278;2024-02-26T02:45:53;3.53;;;0.70;;
11498;SDS011;5806;48.748;9.278;2024-02-26T02:48:21;1.63;;;0.80;;
11498;SDS011;5806;48.748;9.278;2024-02-26T02:50:48;1.17;;;0.60;;
11498;SDS011;5806;48.748;9.278;2024-02-26T02:53:15;2.27;;;0.70;;
11498;SDS011;5806;48.748;9.278;2024-02-26T02:55:44;0.57;;;0.50;;
11498;SDS011;5806;48.748;9.278;2024-02-26T02:58:11;1.30;;;0.80;;
11498;SDS011;5806;48.748;9.278;2024-02-26T03:00:38;0.70;;;0.70;;
11498;SDS011;5806;48.748;9.278;2024-02-26T03:03:06;1.30;;;0.70;;
11498;SDS011;5806;48.748;9.278;2024-02-26T03:05:33;2.13;;;0.80;;
11498;SDS011;5806;48.748;9.278;2024-02-26T03:08:01;1.50;;;0.80;;
11498;SDS011;5806;48.748;9.278;2024-02-26T03:10:28;1.10;;;0.70;;
11498;SDS011;5806;48.748;9.278;2024-02-26T03:12:55;1.00;;;0.90;;
11498;SDS011;5806;48.748;9.278;2024-02-26T03:15:23;0.67;;;0.57;;
11498;SDS011;5806;48.748;9.278;2024-02-26T03:17:50;1.20;;;0.80;;
11498;SDS011;5806;48.748;9.278;2024-02-26T03:20:18;2.37;;;0.57;;
11498;SDS011;5806;48.748;9.278;2024-02-26T03:22:45;0.67;;;0.67;;
11498;SDS011;5806;48.748;9.278;2024-02-26T03:25:13;1.03;;;0.73;;
11498;SDS011;5806;48.748;9.278;2024-02-26T03:27:40;1.13;;;0.60;;
11498;SDS011;5806;48.748;9.278;2024-02-26T03:30:08;3.27;;;0.73;;
11498;SDS011;5806;48.748;9.278;2024-02-26T03:32:36;0.67;;;0.53;;
11498;SDS011;5806;48.748;9.278;2024-02-26T03:35:03;4.27;;;0.80;;
11498;SDS011;5806;48.748;9.278;2024-02-26T03:37:32;1.07;;;0.70;;
11498;SDS011;5806;48.748;9.278;2024-02-26T03:40:00;1.43;;;0.87;;
11498;SDS011;5806;48.748;9.278;2024-02-26T03:42:28;1.00;;;0.77;;
11498;SDS011;5806;48.748;9.278;2024-02-26T03:44:56;0.87;;;0.70;;
11498;SDS011;5806;48.748;9.278;2024-02-26T03:47:23;0.80;;;0.70;;
11498;SDS011;5806;48.748;9.278;2024-02-26T03:49:50;0.67;;;0.67;;
11498;SDS011;5806;48.748;9.278;2024-02-26T03:52:18;0.80;;;0.77;;
11498;SDS011;5806;48.748;9.278;2024-02-26T03:54:45;1.10;;;0.80;;
11498;SDS011;5806;48.748;9.278;2024-02-26T03:57:13;0.97;;;0.80;;
11498;SDS011;5806;48.748;9.278;2024-02-26T03:59:40;2.07;;;0.90;;
11498;SDS011;5806;48.748;9.278;2024-02-26T04:02:07;1.87;;;0.90;;
11498;SDS011;5806;48.748;9.278;2024-02-26T04:04:35;0.70;;;0.50;;
11498;SDS011;5806;48.748;9.278;2024-02-26T04:07:02;1.00;;;0.77;;
11498;SDS011;5806;48.748;9.278;2024-02-26T04:09:33;2.10;;;0.70;;
11498;SDS011;5806;48.748;9.278;2024-02-26T04:12:00;0.93;;;0.50;;
11498;SDS011;5806;48.748;9.278;2024-02-26T04:14:28;1.33;;;0.83;;
11498;SDS011;5806;48.748;9.278;2024-02-26T04:16:55;0.67;;;0.60;;
11498;SDS011;5806;48.748;9.278;2024-02-26T04:19:23;0.77;;;0.63;;
11498;SDS011;5806;48.748;9.278;2024-02-26T04:21:50;1.87;;;1.00;;
11498;SDS011;5806;48.748;9.278;2024-02-26T04:24:18;1.20;;;0.80;;
11498;SDS011;5806;48.748;9.278;2024-02-26T04:26:45;1.70;;;0.90;;
11498;SDS011;5806;48.748;9.278;2024-02-26T04:29:12;1.43;;;0.70;;
11498;SDS011;5806;48.748;9.278;2024-02-26T04:31:40;1.57;;;0.80;;
11498;SDS011;5806;48.748;9.278;2024-02-26T04:34:08;0.87;;;0.80;;
11498;SDS011;5806;48.748;9.278;2024-02-26T04:36:35;3.10;;;1.00;;
11498;SDS011;5806;48.748;9.278;2024-02-26T04:39:03;4.20;;;0.80;;
11498;SDS011;5806;48.748;9.278;2024-02-26T04:41:30;1.77;;;0.80;;
11498;SDS011;5806;48.748;9.278;2024-02-26T04:43:58;0.77;;;0.77;;
11498;SDS011;5806;48.748;9.278;2024-02-26T04:46:25;2.43;;;0.80;;
11498;SDS011;5806;48.748;9.278;2024-02-26T04:48:53;0.90;;;0.70;;
11498;SDS011;5806;48.748;9.278;2024-02-26T04:51:21;1.30;;;0.70;;
11498;SDS011;5806;48.748;9.278;2024-02-26T04:53:48;1.57;;;0.83;;
11498;SDS011;5806;48.748;9.278;2024-02-26T04:56:16;2.17;;;0.90;;
11498;SDS011;5806;48.748;9.278;2024-02-26T04:58:43;1.00;;;0.80;;
11498;SDS011;5806;48.748;9.278;2024-02-26T05:01:11;1.57;;;1.10;;
11498;SDS011;5806;48.748;9.278;2024-02-26T05:03:38;1.70;;;0.80;;
11498;SDS011;5806;48.748;9.278;2024-02-26T05:06:06;1.00;;;0.70;;
11498;SDS011;5806;48.748;9.278;2024-02-26T05:08:34;1.43;;;0.90;;
11498;SDS011;5806;48.748;9.278;2024-02-26T05:11:03;0.90;;;0.77;;
11498;SDS011;5806;48.748;9.278;2024-02-26T05:13:32;2.13;;;0.77;;
11498;SDS011;5806;48.748;9.278;2024-02-26T05:16:00;1.47;;;1.00;;
11498;SDS011;5806;48.748;9.278;2024-02-26T05:18:27;1.23;;;0.80;;
11498;SDS011;5806;48.748;9.278;2024-02-26T05:20:55;1.90;;;1.00;;
11498;SDS011;5806;48.748;9.278;2024-02-26T05:23:22;1.70;;;0.80;;
11498;SDS011;5806;48.748;9.278;2024-02-26T05:25:50;1.57;;;1.00;;
11498;SDS011;5806;48.748;9.278;2024-02-26T05:28:17;1.40;;;1.00;;
11498;SDS011;5806;48.748;9.278;2024-02-26T05:30:46;1.10;;;1.00;;
11498;SDS011;5806;48.748;9.278;2024-02-26T05:33:13;1.93;;;1.10;;
11498;SDS011;5806;48.748;9.278;2024-02-26T05:35:41;1.30;;;0.90;;
11498;SDS011;5806;48.748;9.278;2024-02-26T05:38:08;1.17;;;1.07;;
11498;SDS011;5806;48.748;9.278;2024-02-26T05:40:35;2.80;;;1.10;;
11498;SDS011;5806;48.748;9.278;2024-02-26T05:43:04;2.40;;;1.00;;
11498;SDS011;5806;48.748;9.278;2024-02-26T05:45:31;1.70;;;1.37;;
11498;SDS011;5806;48.748;9.278;2024-02-26T05:47:59;1.10;;;0.93;;
11498;SDS011;5806;48.748;9.278;2024-02-26T05:50:26;2.57;;;1.20;;
11498;SDS011;5806;48.748;9.278;2024-02-26T05:52:54;1.57;;;1.10;;
11498;SDS011;5806;48.748;9.278;2024-02-26T05:55:21;3.07;;;1.20;;
11498;SDS011;5806;48.748;9.278;2024-02-26T05:57:48;3.50;;;1.00;;
11498;SDS011;5806;48.748;9.278;2024-02-26T06:00:16;1.70;;;1.10;;
11498;SDS011;5806;48.748;9.278;2024-02-26T06:02:44;2.33;;;1.10;;
11498;SDS011;5806;48.748;9.278;2024-02-26T06:05:11;1.20;;;1.00;;
11498;SDS011;5806;48.748;9.278;2024-02-26T06:07:39;2.30;;;1.23;;
11498;SDS011;5806;48.748;9.278;2024-02-26T06:10:06;1.70;;;1.20;;
11498;SDS011;5806;48.748;9.278;2024-02-26T06:12:36;1.37;;;1.17;;
11498;SDS011;5806;48.748;9.278;2024-02-26T06:15:04;1.23;;;1.10;;
11498;SDS011;5806;48.748;9.278;2024-02-26T06:17:32;1.50;;;1.10;;
11498;SDS011;5806;48.748;9.278;2024-02-26T06:20:00;3.17;;;1.20;;
11498;SDS011;5806;48.748;9.278;2024-02-26T06:22:29;2.67;;;1.40;;
11498;SDS011;5806;48.748;9.278;2024-02-26T06:24:57;1.83;;;1.10;;
11498;SDS011;5806;48.748;9.278;2024-02-26T06:27:24;2.07;;;1.20;;
11498;SDS011;5806;48.748;9.278;2024-02-26T06:29:51;2.73;;;1.70;;
11498;SDS011;5806;48.748;9.278;2024-02-26T06:32:19;1.50;;;1.37;;
11498;SDS011;5806;48.748;9.278;2024-02-26T06:34:48;3.27;;;1.43;;
11498;SDS011;5806;48.748;9.278;2024-02-26T06:37:15;2.57;;;1.20;;
11498;SDS011;5806;48.748;9.278;2024-02-26T06:39:43;1.53;;;1.40;;
11498;SDS011;5806;48.748;9.278;2024-02-26T06:42:10;1.47;;;1.20;;
11498;SDS011;5806;48.748;9.278;2024-02-26T06:44:38;1.53;;;1.20;;
11498;SDS011;5806;48.748;9.278;2024-02-26T06:47:05;1.83;;;1.27;;
11498;SDS011;5806;48.748;9.278;2024-02-26T06:49:33;2.67;;;1.57;;
11498;SDS011;5806;48.748;9.278;2024-02-26T06:52:00;2.90;;;1.37;;
11498;SDS011;5806;48.748;9.278;2024-02-26T06:54:28;1.20;;;1.10;;
11498;SDS011;5806;48.748;9.278;2024-02-26T06:56:55;3.37;;;1.57;;
11498;SDS011;5806;48.748;9.278;2024-02-26T06:59:22;1.80;;;1.57;;
11498;SDS011;5806;48.748;9.278;2024-02-26T07:01:50;3.30;;;1.63;;
11498;SDS011;5806;48.748;9.278;2024-02-26T07:04:17;1.80;;;1.40;;
11498;SDS011;5806;48.748;9.278;2024-02-26T07:06:45;1.90;;;1.50;;
11498;SDS011;5806;48.748;9.278;2024-02-26T07:09:13;2.60;;;1.40;;
11498;SDS011;5806;48.748;9.278;2024-02-26T07:11:41;1.77;;;1.40;;
11498;SDS011;5806;48.748;9.278;2024-02-26T07:14:09;2.33;;;1.50;;
11498;SDS011;5806;48.748;9.278;2024-02-26T07:16:37;1.50;;;1.40;;
11498;SDS011;5806;48.748;9.278;2024-02-26T07:19:04;2.13;;;1.50;;
11498;SDS011;5806;48.748;9.278;2024-02-26T07:21:32;2.47;;;1.63;;
11498;SDS011;5806;48.748;9.278;2024-02-26T07:24:00;2.30;;;1.33;;
11498;SDS011;5806;48.748;9.278;2024-02-26T07:26:27;2.33;;;1.57;;
11498;SDS011;5806;48.748;9.278;2024-02-26T07:28:56;2.30;;;1.60;;
11498;SDS011;5806;48.748;9.278;2024-02-26T07:31:24;1.70;;;1.50;;
11498;SDS011;5806;48.748;9.278;2024-02-26T07:33:51;2.20;;;1.50;;
11498;SDS011;5806;48.748;9.278;2024-02-26T07:36:19;2.00;;;1.70;;
11498;SDS011;5806;48.748;9.278;2024-02-26T07:38:46;1.97;;;1.53;;
11498;SDS011;5806;48.748;9.278;2024-02-26T07:41:14;3.10;;;1.60;;
11498;SDS011;5806;48.748;9.278;2024-02-26T07:43:41;1.83;;;1.70;;
11498;SDS011;5806;48.748;9.278;2024-02-26T07:46:11;2.03;;;1.60;;
11498;SDS011;5806;48.748;9.278;2024-02-26T07:48:38;2.30;;;1.53;;
11498;SDS011;5806;48.748;9.278;2024-02-26T07:51:07;1.90;;;1.47;;
11498;SDS011;5806;48.748;9.278;2024-02-26T07:53:34;2.90;;;1.70;;
11498;SDS011;5806;48.748;9.278;2024-02-26T07:56:02;3.47;;;1.40;;
11498;SDS011;5806;48.748;9.278;2024-02-26T07:58:29;2.73;;;1.40;;
11498;SDS011;5806;48.748;9.278;2024-02-26T08:00:58;2.83;;;1.50;;
11498;SDS011;5806;48.748;9.278;2024-02-26T08:03:26;2.13;;;1.20;;
11498;SDS011;5806;48.748;9.278;2024-02-26T08:05:54;2.70;;;1.60;;
11498;SDS011;5806;48.748;9.278;2024-02-26T08:08:21;2.10;;;1.33;;
11498;SDS011;5806;48.748;9.278;2024-02-26T08:10:49;2.13;;;1.30;;
11498;SDS011;5806;48.748;9.278;2024-02-26T08:13:16;3.33;;;1.20;;
11498;SDS011;5806;48.748;9.278;2024-02-26T08:15:44;2.00;;;1.50;;
11498;SDS011;5806;48.748;9.278;2024-02-26T08:18:11;2.17;;;1.20;;
11498;SDS011;5806;48.748;9.278;2024-02-26T08:20:38;2.57;;;1.67;;
11498;SDS011;5806;48.748;9.278;2024-02-26T08:23:06;1.93;;;1.70;;
11498;SDS011;5806;48.748;9.278;2024-02-26T08:25:34;2.57;;;1.33;;
11498;SDS011;5806;48.748;9.278;2024-02-26T08:28:01;1.93;;;1.13;;
11498;SDS011;5806;48.748;9.278;2024-02-26T08:30:28;2.00;;;1.50;;
11498;SDS011;5806;48.748;9.278;2024-02-26T08:32:56;2.53;;;1.87;;
11498;SDS011;5806;48.748;9.278;2024-02-26T08:35:23;3.03;;;1.53;;
11498;SDS011;5806;48.748;9.278;2024-02-26T08:37:51;2.60;;;1.50;;
11498;SDS011;5806;48.748;9.278;2024-02-26T08:40:18;2.03;;;1.60;;
11498;SDS011;5806;48.748;9.278;2024-02-26T08:42:45;2.70;;;1.90;;
11498;SDS011;5806;48.748;9.278;2024-02-26T08:45:13;4.17;;;1.80;;
11498;SDS011;5806;48.748;9.278;2024-02-26T08:47:40;1.90;;;1.73;;
11498;SDS011;5806;48.748;9.278;2024-02-26T08:50:08;1.80;;;1.70;;
11498;SDS011;5806;48.748;9.278;2024-02-26T08:52:38;1.90;;;1.60;;
11498;SDS011;5806;48.748;9.278;2024-02-26T08:55:06;2.30;;;2.00;;
11498;SDS011;5806;48.748;9.278;2024-02-26T08:57:34;2.00;;;1.60;;
11498;SDS011;5806;48.748;9.278;2024-02-26T09:00:03;1.50;;;1.30;;
11498;SDS011;5806;48.748;9.278;2024-02-26T09:02:31;3.00;;;1.47;;
11498;SDS011;5806;48.748;9.278;2024-02-26T09:04:58;2.27;;;1.60;;
11498;SDS011;5806;48.748;9.278;2024-02-26T09:07:26;5.03;;;1.90;;
11498;SDS011;5806;48.748;9.278;2024-02-26T09:09:53;2.20;;;1.40;;
11498;SDS011;5806;48.748;9.278;2024-02-26T09:12:21;1.93;;;1.60;;
11498;SDS011;5806;48.748;9.278;2024-02-26T09:14:49;3.73;;;1.93;;
11498;SDS011;5806;48.748;9.278;2024-02-26T09:17:16;2.07;;;1.50;;
11498;SDS011;5806;48.748;9.278;2024-02-26T09:19:43;2.07;;;1.50;;
11498;SDS011;5806;48.748;9.278;2024-02-26T09:22:11;2.37;;;1.60;;
11498;SDS011;5806;48.748;9.278;2024-02-26T09:24:38;2.70;;;1.90;;
11498;SDS011;5806;48.748;9.278;2024-02-26T09:27:06;2.60;;;1.80;;
11498;SDS011;5806;48.748;9.278;2024-02-26T09:29:35;1.90;;;1.67;;
11498;SDS011;5806;48.748;9.278;2024-02-26T09:32:02;2.47;;;1.40;;
11498;SDS011;5806;48.748;9.278;2024-02-26T09:34:30;3.57;;;1.73;;
11498;SDS011;5806;48.748;9.278;2024-02-26T09:36:59;4.03;;;1.80;;
11498;SDS011;5806;48.748;9.278;2024-02-26T09:39:27;1.80;;;1.70;;
11498;SDS011;5806;48.748;9.278;2024-02-26T09:41:54;2.10;;;1.90;;
11498;SDS011;5806;48.748;9.278;2024-02-26T09:44:24;3.27;;;2.00;;
11498;SDS011;5806;48.748;9.278;2024-02-26T09:46:56;2.83;;;1.90;;
11498;SDS011;5806;48.748;9.278;2024-02-26T09:49:24;3.33;;;1.60;;
11498;SDS011;5806;48.748;9.278;2024-02-26T09:51:52;3.07;;;2.00;;
11498;SDS011;5806;48.748;9.278;2024-02-26T09:54:23;3.20;;;1.80;;
11498;SDS011;5806;48.748;9.278;2024-02-26T09:56:53;3.57;;;1.97;;
11498;SDS011;5806;48.748;9.278;2024-02-26T09:59:23;3.90;;;1.83;;
11498;SDS011;5806;48.748;9.278;2024-02-26T10:01:51;2.40;;;1.83;;
11498;SDS011;5806;48.748;9.278;2024-02-26T10:04:20;2.30;;;1.90;;
11498;SDS011;5806;48.748;9.278;2024-02-26T10:06:48;3.00;;;1.97;;
11498;SDS011;5806;48.748;9.278;2024-02-26T10:09:16;3.30;;;2.03;;
11498;SDS011;5806;48.748;9.278;2024-02-26T10:11:45;2.57;;;1.90;;
11498;SDS011;5806;48.748;9.278;2024-02-26T10:14:14;2.67;;;1.80;;
11498;SDS011;5806;48.748;9.278;2024-02-26T10:16:42;3.20;;;2.50;;
11498;SDS011;5806;48.748;9.278;2024-02-26T10:19:10;2.47;;;2.20;;
11498;SDS011;5806;48.748;9.278;2024-02-26T10:21:40;2.70;;;2.37;;
11498;SDS011;5806;48.748;9.278;2024-02-26T10:24:13;2.77;;;2.30;;
11498;SDS011;5806;48.748;9.278;2024-02-26T10:26:45;3.40;;;2.20;;
11498;SDS011;5806;48.748;9.278;2024-02-26T10:29:13;3.53;;;2.13;;
11498;SDS011;5806;48.748;9.278;2024-02-26T10:31:43;2.60;;;2.10;;
11498;SDS011;5806;48.748;9.278;2024-02-26T10:34:11;2.90;;;2.00;;
11498;SDS011;5806;48.748;9.278;2024-02-26T10:36:39;4.17;;;2.00;;
11498;SDS011;5806;48.748;9.278;2024-02-26T10:39:09;3.63;;;2.03;;
11498;SDS011;5806;48.748;9.278;2024-02-26T10:41:42;3.10;;;1.80;;
11498;SDS011;5806;48.748;9.278;2024-02-26T10:44:12;2.93;;;2.27;;
11498;SDS011;5806;48.748;9.278;2024-02-26T10:46:40;2.30;;;2.10;;
11498;SDS011;5806;48.748;9.278;2024-02-26T10:49:14;4.33;;;2.03;;
11498;SDS011;5806;48.748;9.278;2024-02-26T10:51:45;4.37;;;2.40;;
11498;SDS011;5806;48.748;9.278;2024-02-26T10:54:16;3.80;;;2.67;;
11498;SDS011;5806;48.748;9.278;2024-02-26T10:56:44;2.90;;;2.37;;
11498;SDS011;5806;48.748;9.278;2024-02-26T10:59:15;2.80;;;2.03;;
11498;SDS011;5806;48.748;9.278;2024-02-26T11:01:47;4.53;;;2.13;;
11498;SDS011;5806;48.748;9.278;2024-02-26T11:04:15;4.77;;;2.40;;
11498;SDS011;5806;48.748;9.278;2024-02-26T11:06:44;4.13;;;2.43;;
11498;SDS011;5806;48.748;9.278;2024-02-26T11:09:13;3.40;;;2.33;;
11498;SDS011;5806;48.748;9.278;2024-02-26T11:11:42;2.30;;;2.10;;
11498;SDS011;5806;48.748;9.278;2024-02-26T11:14:10;4.80;;;2.40;;
11498;SDS011;5806;48.748;9.278;2024-02-26T11:16:39;2.60;;;2.20;;
11498;SDS011;5806;48.748;9.278;2024-02-26T11:19:08;3.37;;;2.40;;
11498;SDS011;5806;48.748;9.278;2024-02-26T11:21:37;2.33;;;2.00;;
11498;SDS011;5806;48.748;9.278;2024-02-26T11:24:06;4.03;;;2.60;;
11498;SDS011;5806;48.748;9.278;2024-02-26T11:26:37;2.93;;;2.27;;
11498;SDS011;5806;48.748;9.278;2024-02-26T11:29:07;2.77;;;2.30;;
11498;SDS011;5806;48.748;9.278;2024-02-26T11:31:37;3.60;;;2.10;;
11498;SDS011;5806;48.748;9.278;2024-02-26T11:34:06;3.00;;;2.13;;
11498;SDS011;5806;48.748;9.278;2024-02-26T11:36:35;4.70;;;2.40;;
11498;SDS011;5806;48.748;9.278;2024-02-26T11:39:04;3.20;;;2.50;;
11498;SDS011;5806;48.748;9.278;2024-02-26T11:41:33;3.17;;;2.37;;
11498;SDS011;5806;48.748;9.278;2024-02-26T11:44:01;4.10;;;2.63;;
11498;SDS011;5806;48.748;9.278;2024-02-26T11:46:31;2.37;;;2.13;;
11498;SDS011;5806;48.748;9.278;2024-02-26T11:49:03;2.47;;;2.20;;
11498;SDS011;5806;48.748;9.278;2024-02-26T11:51:33;4.73;;;2.63;;
11498;SDS011;5806;48.748;9.278;2024-02-26T11:54:01;4.03;;;2.40;;
11498;SDS011;5806;48.748;9.278;2024-02-26T11:56:29;2.73;;;2.33;;
11498;SDS011;5806;48.748;9.278;2024-02-26T11:58:59;3.03;;;2.50;;
11498;SDS011;5806;48.748;9.278;2024-02-26T12:01:39;2.93;;;2.47;;
11498;SDS011;5806;48.748;9.278;2024-02-26T12:04:13;3.67;;;2.70;;
11498;SDS011;5806;48.748;9.278;2024-02-26T12:06:43;2.53;;;2.33;;
11498;SDS011;5806;48.748;9.278;2024-02-26T12:12:10;3.07;;;2.13;;
11498;SDS011;5806;48.748;9.278;2024-02-26T12:14:36;3.83;;;2.90;;
11498;SDS011;5806;48.748;9.278;2024-02-26T12:17:07;3.80;;;2.90;;
11498;SDS011;5806;48.748;9.278;2024-02-26T12:19:36;3.10;;;2.80;;
11498;SDS011;5806;48.748;9.278;2024-02-26T12:22:04;3.43;;;2.90;;
11498;SDS011;5806;48.748;9.278;2024-02-26T12:24:33;4.83;;;2.73;;
11498;SDS011;5806;48.748;9.278;2024-02-26T12:27:00;3.20;;;2.73;;
11498;SDS011;5806;48.748;9.278;2024-02-26T12:29:28;5.17;;;2.97;;
11498;SDS011;5806;48.748;9.278;2024-02-26T12:31:56;4.03;;;2.73;;
11498;SDS011;5806;48.748;9.278;2024-02-26T12:34:23;5.20;;;3.13;;
11498;SDS011;5806;48.748;9.278;2024-02-26T12:36:52;5.47;;;2.90;;
11498;SDS011;5806;48.748;9.278;2024-02-26T12:39:21;3.63;;;2.53;;
11498;SDS011;5806;48.748;9.278;2024-02-26T12:41:48;3.70;;;2.60;;
11498;SDS011;5806;48.748;9.278;2024-02-26T12:44:16;3.43;;;2.50;;
11498;SDS011;5806;48.748;9.278;2024-02-26T12:46:43;4.30;;;3.13;;
11498;SDS011;5806;48.748;9.278;2024-02-26T12:49:14;3.00;;;2.70;;
11498;SDS011;5806;48.748;9.278;2024-02-26T12:51:45;3.80;;;3.00;;
11498;SDS011;5806;48.748;9.278;2024-02-26T12:54:13;3.90;;;2.80;;
11498;SDS011;5806;48.748;9.278;2024-02-26T12:56:41;4.03;;;3.30;;
11498;SDS011;5806;48.748;9.278;2024-02-26T12:59:09;4.23;;;3.20;;
11498;SDS011;5806;48.748;9.278;2024-02-26T13:01:36;4.13;;;3.10;;
11498;SDS011;5806;48.748;9.278;2024-02-26T13:04:05;5.20;;;3.07;;
11498;SDS011;5806;48.748;9.278;2024-02-26T13:06:33;6.87;;;3.20;;
11498;SDS011;5806;48.748;9.278;2024-02-26T13:09:00;3.30;;;2.93;;
11498;SDS011;5806;48.748;9.278;2024-02-26T13:11:28;4.00;;;3.17;;
11498;SDS011;5806;48.748;9.278;2024-02-26T13:13:57;3.77;;;2.90;;
11498;SDS011;5806;48.748;9.278;2024-02-26T13:16:24;5.20;;;3.40;;
11498;SDS011;5806;48.748;9.278;2024-02-26T13:18:53;4.00;;;3.23;;
11498;SDS011;5806;48.748;9.278;2024-02-26T13:21:20;4.47;;;3.13;;
11498;SDS011;5806;48.748;9.278;2024-02-26T13:23:51;3.90;;;3.50;;
11498;SDS011;5806;48.748;9.278;2024-02-26T13:26:21;4.90;;;3.63;;
11498;SDS011;5806;48.748;9.278;2024-02-26T13:29:02;6.40;;;3.60;;
11498;SDS011;5806;48.748;9.278;2024-02-26T13:31:30;5.07;;;4.27;;
11498;SDS011;5806;48.748;9.278;2024-02-26T13:33:58;5.57;;;4.00;;
11498;SDS011;5806;48.748;9.278;2024-02-26T13:36:25;6.23;;;4.10;;
11498;SDS011;5806;48.748;9.278;2024-02-26T13:38:53;5.87;;;4.00;;
11498;SDS011;5806;48.748;9.278;2024-02-26T13:41:21;5.70;;;4.37;;
11498;SDS011;5806;48.748;9.278;2024-02-26T13:43:49;5.40;;;4.33;;
11498;SDS011;5806;48.748;9.278;2024-02-26T13:46:17;5.33;;;4.10;;
11498;SDS011;5806;48.748;9.278;2024-02-26T13:48:45;5.23;;;4.40;;
11498;SDS011;5806;48.748;9.278;2024-02-26T13:51:12;5.80;;;4.17;;
11498;SDS011;5806;48.748;9.278;2024-02-26T13:53:40;6.43;;;4.87;;
11498;SDS011;5806;48.748;9.278;2024-02-26T13:56:08;4.60;;;4.07;;
11498;SDS011;5806;48.748;9.278;2024-02-26T13:58:37;6.70;;;4.50;;
11498;SDS011;5806;48.748;9.278;2024-02-26T14:01:05;6.10;;;4.80;;
11498;SDS011;5806;48.748;9.278;2024-02-26T14:03:32;5.93;;;4.40;;
11498;SDS011;5806;48.748;9.278;2024-02-26T14:05:59;4.90;;;4.33;;
11498;SDS011;5806;48.748;9.278;2024-02-26T14:08:27;6.63;;;5.07;;
11498;SDS011;5806;48.748;9.278;2024-02-26T14:10:54;7.20;;;4.70;;
11498;SDS011;5806;48.748;9.278;2024-02-26T14:13:22;7.03;;;5.00;;
11498;SDS011;5806;48.748;9.278;2024-02-26T14:15:49;6.03;;;4.40;;
11498;SDS011;5806;48.748;9.278;2024-02-26T14:18:16;7.47;;;5.27;;
11498;SDS011;5806;48.748;9.278;2024-02-26T14:20:44;5.57;;;4.63;;
11498;SDS011;5806;48.748;9.278;2024-02-26T14:23:11;7.93;;;4.67;;
11498;SDS011;5806;48.748;9.278;2024-02-26T14:25:39;5.07;;;4.23;;
11498;SDS011;5806;48.748;9.278;2024-02-26T14:28:06;6.03;;;5.40;;
11498;SDS011;5806;48.748;9.278;2024-02-26T14:30:34;6.30;;;5.03;;
11498;SDS011;5806;48.748;9.278;2024-02-26T14:33:02;7.17;;;5.43;;
11498;SDS011;5806;48.748;9.278;2024-02-26T14:35:29;7.57;;;5.30;;
11498;SDS011;5806;48.748;9.278;2024-02-26T14:37:56;7.77;;;6.20;;
11498;SDS011;5806;48.748;9.278;2024-02-26T14:40:26;8.67;;;6.60;;
11498;SDS011;5806;48.748;9.278;2024-02-26T14:42:53;9.23;;;6.77;;
11498;SDS011;5806;48.748;9.278;2024-02-26T14:45:22;8.43;;;6.13;;
11498;SDS011;5806;48.748;9.278;2024-02-26T14:47:49;9.77;;;6.50;;
11498;SDS011;5806;48.748;9.278;2024-02-26T14:50:17;9.97;;;7.77;;
11498;SDS011;5806;48.748;9.278;2024-02-26T14:52:44;12.07;;;8.03;;
11498;SDS011;5806;48.748;9.278;2024-02-26T14:55:12;9.67;;;6.97;;
11498;SDS011;5806;48.748;9.278;2024-02-26T14:57:39;10.63;;;7.47;;
11498;SDS011;5806;48.748;9.278;2024-02-26T15:00:07;9.43;;;6.93;;
11498;SDS011;5806;48.748;9.278;2024-02-26T15:02:35;11.97;;;6.93;;
11498;SDS011;5806;48.748;9.278;2024-02-26T15:05:03;9.80;;;7.10;;
11498;SDS011;5806;48.748;9.278;2024-02-26T15:07:33;10.63;;;6.90;;